createdAt,value
2022-11-10T00:02:01.573Z,13.80
2022-11-10T00:06:56.636Z,10.57
2022-11-10T00:11:50.204Z,17.90
2022-11-10T00:17:00.953Z,19.80
2022-11-10T00:21:55.916Z,18.43
2022-11-10T00:26:52.174Z,17.37
2022-11-10T00:31:45.812Z,13.40
2022-11-10T00:36:39.676Z,17.03
2022-11-10T00:41:34.625Z,19.70
2022-11-10T00:46:28.147Z,19.13
2022-11-10T00:51:25.764Z,14.17
2022-11-10T00:56:20.934Z,12.93
2022-11-10T01:01:18.008Z,13.20
2022-11-10T01:06:14.832Z,17.70
2022-11-10T01:11:14.024Z,12.03
2022-11-10T01:16:13.204Z,13.83
2022-11-10T01:21:30.616Z,23.80
2022-11-10T01:26:33.272Z,12.63
2022-11-10T01:31:38.689Z,22.63
2022-11-10T01:36:39.537Z,19.63
2022-11-10T01:41:40.168Z,21.97
2022-11-10T01:46:44.687Z,18.00
2022-11-10T01:52:00.253Z,17.77
2022-11-10T01:57:05.304Z,22.03
2022-11-10T02:02:18.528Z,12.13
2022-11-10T02:07:24.863Z,20.57
2022-11-10T02:12:37.124Z,16.53
2022-11-10T02:17:35.720Z,16.67
2022-11-10T02:22:33.424Z,15.53
2022-11-10T02:27:27.473Z,18.70
2022-11-10T02:32:24.084Z,15.40
2022-11-10T02:37:18.043Z,9.43
2022-11-10T02:42:13.157Z,9.50
2022-11-10T02:47:10.081Z,18.60
2022-11-10T02:52:06.726Z,13.90
2022-11-10T02:57:08.686Z,13.70
2022-11-10T03:02:21.506Z,13.67
2022-11-10T03:07:20.451Z,20.47
2022-11-10T03:12:35.840Z,23.17
2022-11-10T03:17:55.290Z,22.33
2022-11-10T03:23:17.814Z,50.63
2022-11-10T03:28:15.151Z,58.63
2022-11-10T03:33:13.301Z,51.90
2022-11-10T03:38:29.900Z,46.47
2022-11-10T03:43:28.880Z,29.67
2022-11-10T03:48:35.084Z,30.83
2022-11-10T03:53:52.317Z,23.60
2022-11-10T03:58:48.312Z,15.80
2022-11-10T04:03:51.040Z,16.70
2022-11-10T04:09:10.757Z,18.87
2022-11-10T04:14:27.352Z,13.00
2022-11-10T04:19:22.578Z,12.33
2022-11-10T04:24:23.858Z,12.00
2022-11-10T04:29:29.877Z,13.93
2022-11-10T04:34:25.881Z,23.57
2022-11-10T04:39:21.123Z,18.13
2022-11-10T04:44:14.627Z,28.10
2022-11-10T04:49:09.005Z,15.80
2022-11-10T04:54:16.368Z,15.90
2022-11-10T04:59:19.973Z,12.27
2022-11-10T05:04:16.489Z,12.97
2022-11-10T05:09:17.233Z,12.53
2022-11-10T05:14:19.549Z,10.33
2022-11-10T05:19:27.525Z,11.40
2022-11-10T05:24:47.186Z,11.37
2022-11-10T05:29:48.306Z,10.53
2022-11-10T05:34:49.253Z,12.00
2022-11-10T05:39:46.807Z,10.70
2022-11-10T05:44:42.919Z,36.40
2022-11-10T05:49:42.352Z,23.40
2022-11-10T05:55:16.018Z,23.77
2022-11-10T06:00:30.259Z,22.23
2022-11-10T06:10:48.763Z,18.93
2022-11-10T06:15:53.927Z,14.53
2022-11-10T06:20:48.544Z,15.07
2022-11-10T06:25:48.108Z,12.37
2022-11-10T06:30:43.740Z,11.10
2022-11-10T06:35:39.737Z,13.97
2022-11-10T06:40:59.427Z,19.50
2022-11-10T06:46:30.605Z,16.43
2022-11-10T06:51:26.770Z,12.63
2022-11-10T06:56:24.808Z,13.93
2022-11-10T07:01:22.516Z,13.17
2022-11-10T07:06:18.518Z,12.63
2022-11-10T07:11:11.988Z,16.30
2022-11-10T07:16:09.214Z,21.10
2022-11-10T07:21:08.050Z,21.77
2022-11-10T07:26:02.096Z,22.47
2022-11-10T07:30:56.040Z,19.27
2022-11-10T07:35:56.343Z,22.87
2022-11-10T07:40:54.753Z,22.97
2022-11-10T07:45:48.183Z,19.17
2022-11-10T07:50:42.097Z,23.77
2022-11-10T07:55:35.912Z,27.57
2022-11-10T08:00:34.548Z,48.77
2022-11-10T08:05:27.924Z,21.93
2022-11-10T08:10:33.549Z,34.40
2022-11-10T08:15:39.903Z,40.13
2022-11-10T08:20:57.181Z,20.97
2022-11-10T08:25:53.588Z,27.37
2022-11-10T08:30:52.151Z,25.67
2022-11-10T08:36:10.120Z,25.60
2022-11-10T08:41:10.259Z,18.40
2022-11-10T08:47:01.094Z,23.43
2022-11-10T08:52:12.192Z,18.53
2022-11-10T08:57:11.049Z,19.33
2022-11-10T09:02:11.993Z,18.90
2022-11-10T09:07:18.123Z,17.63
2022-11-10T09:12:15.373Z,15.30
2022-11-10T09:17:20.438Z,13.23
2022-11-10T09:22:24.677Z,14.93
2022-11-10T09:27:22.252Z,14.10
2022-11-10T09:32:22.679Z,14.27
2022-11-10T09:37:17.380Z,14.00
2022-11-10T09:42:51.705Z,15.17
2022-11-10T09:48:02.358Z,13.10
2022-11-10T09:52:57.759Z,13.27
2022-11-10T09:57:57.709Z,13.40
2022-11-10T10:03:00.225Z,11.53
2022-11-10T10:08:02.353Z,11.60
2022-11-10T10:13:24.251Z,11.97
2022-11-10T10:18:30.886Z,10.27
2022-11-10T10:24:07.273Z,12.23
2022-11-10T10:28:51.523Z,13.57
2022-11-10T10:33:47.213Z,15.23
2022-11-10T10:38:42.324Z,11.23
2022-11-10T10:43:35.578Z,11.50
2022-11-10T10:48:31.504Z,9.87
2022-11-10T10:53:26.758Z,8.50
2022-11-10T10:58:25.369Z,10.83
2022-11-10T11:03:29.705Z,9.40
2022-11-10T11:08:27.007Z,11.20
2022-11-10T11:13:25.612Z,9.60
2022-11-10T11:18:20.643Z,8.33
2022-11-10T11:23:42.677Z,7.97
2022-11-10T11:28:53.709Z,8.70
2022-11-10T11:33:53.150Z,7.67
2022-11-10T11:38:59.653Z,7.60
2022-11-10T11:44:26.519Z,9.23
2022-11-10T11:49:54.202Z,9.77
2022-11-10T11:55:11.698Z,7.60
2022-11-10T12:00:11.658Z,12.10
2022-11-10T12:05:28.173Z,9.30
2022-11-10T12:10:43.300Z,7.27
2022-11-10T12:15:51.720Z,9.97
2022-11-10T12:21:01.619Z,9.43
2022-11-10T12:26:14.934Z,7.30
2022-11-10T12:31:18.572Z,9.80
2022-11-10T12:36:17.678Z,12.13
2022-11-10T12:41:15.867Z,9.80
2022-11-10T12:46:13.890Z,9.03
2022-11-10T12:51:17.385Z,7.17
2022-11-10T12:56:21.213Z,7.07
2022-11-10T13:01:20.599Z,7.80
2022-11-10T13:06:29.571Z,8.97
2022-11-10T13:16:55.739Z,6.47
2022-11-10T13:22:11.754Z,7.97
2022-11-10T13:27:13.856Z,8.57
2022-11-10T13:32:31.579Z,8.27
2022-11-10T13:38:35.499Z,9.70
2022-11-10T13:43:35.458Z,10.23
2022-11-10T13:48:44.109Z,6.90
2022-11-10T13:53:52.068Z,8.93
2022-11-10T13:58:46.939Z,6.97
2022-11-10T14:04:02.230Z,7.37
2022-11-10T14:09:19.684Z,9.53
2022-11-10T14:14:19.552Z,5.30
2022-11-10T14:19:36.102Z,7.97
2022-11-10T14:24:35.916Z,6.67
2022-11-10T14:29:35.937Z,5.47
2022-11-10T14:34:33.504Z,6.53
2022-11-10T14:39:33.927Z,7.60
2022-11-10T14:44:30.113Z,4.67
2022-11-10T14:49:25.553Z,6.67
2022-11-10T14:54:27.842Z,4.70
2022-11-10T14:59:23.877Z,7.43
2022-11-10T15:04:18.076Z,7.87
2022-11-10T15:09:15.758Z,7.00
2022-11-10T15:14:39.623Z,4.37
2022-11-10T15:19:37.893Z,5.20
2022-11-10T15:24:31.264Z,6.30
2022-11-10T15:29:25.678Z,4.27
2022-11-10T15:34:42.448Z,4.97
2022-11-10T15:39:35.952Z,4.40
2022-11-10T15:44:29.520Z,4.43
2022-11-10T15:49:26.972Z,7.90
2022-11-10T15:54:26.022Z,11.13
2022-11-10T15:59:19.344Z,7.90
2022-11-10T16:04:13.727Z,12.00
2022-11-10T16:09:08.161Z,9.07
2022-11-10T16:14:04.813Z,8.70
2022-11-10T16:18:58.182Z,9.87
2022-11-10T16:23:51.873Z,10.83
2022-11-10T16:28:47.788Z,9.53
2022-11-10T16:33:42.906Z,11.23
2022-11-10T16:38:36.238Z,10.40
2022-11-10T16:43:31.694Z,9.03
2022-11-10T16:48:29.855Z,11.13
2022-11-10T16:53:28.127Z,11.57
2022-11-10T16:58:21.880Z,11.70
2022-11-10T17:03:21.824Z,8.97
2022-11-10T17:08:24.777Z,10.67
2022-11-10T17:13:18.893Z,8.97
2022-11-10T17:18:16.932Z,9.30
2022-11-10T17:23:14.921Z,8.83
2022-11-10T17:28:14.138Z,9.07
2022-11-10T17:33:07.811Z,10.83
2022-11-10T17:38:01.495Z,8.20
2022-11-10T17:42:54.888Z,9.03
2022-11-10T17:47:51.391Z,9.63
2022-11-10T17:52:45.809Z,8.30
2022-11-10T17:57:39.452Z,7.53
2022-11-10T18:02:32.755Z,8.93
2022-11-10T18:07:27.473Z,10.23
2022-11-10T18:12:25.329Z,15.67
2022-11-10T18:17:21.023Z,8.87
2022-11-10T18:22:14.352Z,7.80
2022-11-10T18:27:09.562Z,8.60
2022-11-10T18:32:02.879Z,8.17
2022-11-10T18:36:56.196Z,6.97
2022-11-10T18:41:50.683Z,6.70
2022-11-10T18:46:45.813Z,7.57
2022-11-10T18:51:39.271Z,8.47
2022-11-10T18:56:32.919Z,6.90
2022-11-10T19:01:26.824Z,8.37
2022-11-10T19:06:21.693Z,7.30
2022-11-10T19:11:17.859Z,9.43
2022-11-10T19:16:13.892Z,9.77
2022-11-10T19:21:08.346Z,7.80
2022-11-10T19:26:09.960Z,9.30
2022-11-10T19:31:03.769Z,8.27
2022-11-10T19:35:57.087Z,11.67
2022-11-10T19:40:50.382Z,11.40
2022-11-10T19:45:45.140Z,8.43
2022-11-10T19:50:38.505Z,8.60
2022-11-10T19:55:33.572Z,7.77
2022-11-10T20:00:27.220Z,9.63
2022-11-10T20:05:22.242Z,7.43
2022-11-10T20:10:15.606Z,7.10
2022-11-10T20:15:11.066Z,8.07
2022-11-10T20:20:05.079Z,8.70
2022-11-10T20:24:59.897Z,7.57
2022-11-10T20:29:53.174Z,8.27
2022-11-10T20:34:46.455Z,11.27
2022-11-10T20:39:46.834Z,8.43
2022-11-10T20:44:41.808Z,10.17
2022-11-10T20:49:35.219Z,10.37
2022-11-10T20:54:34.398Z,9.30
2022-11-10T20:59:27.695Z,10.03
2022-11-10T21:04:22.650Z,9.97
2022-11-10T21:09:16.425Z,10.87
2022-11-10T21:14:09.720Z,23.33
2022-11-10T21:19:04.316Z,15.50
2022-11-10T21:24:01.753Z,19.63
2022-11-10T21:28:55.159Z,13.40
2022-11-10T21:33:48.565Z,14.47
2022-11-10T21:38:42.548Z,42.23
2022-11-10T21:43:39.985Z,30.33
2022-11-10T21:48:33.288Z,14.27
2022-11-10T21:53:26.555Z,66.00
2022-11-10T21:58:19.843Z,91.27
2022-11-10T22:03:14.500Z,25.37
2022-11-10T22:08:08.105Z,35.20
2022-11-10T22:13:19.108Z,22.93
2022-11-10T22:18:36.851Z,28.30
2022-11-10T22:23:47.640Z,99.80
2022-11-10T22:28:41.683Z,20.27
2022-11-10T22:33:37.700Z,14.00
2022-11-10T22:38:31.721Z,17.13
2022-11-10T22:43:42.321Z,17.73
2022-11-10T22:48:36.976Z,17.43
2022-11-10T22:53:31.230Z,21.23
2022-11-10T22:58:24.541Z,74.53
2022-11-10T23:03:17.871Z,55.83
2022-11-10T23:08:12.504Z,11.90
2022-11-10T23:13:05.715Z,27.97
2022-11-10T23:18:02.460Z,20.57
2022-11-10T23:22:59.616Z,55.03
2022-11-10T23:27:54.260Z,32.53
2022-11-10T23:32:47.535Z,30.17
2022-11-10T23:37:40.837Z,98.30
2022-11-10T23:42:34.151Z,81.57
2022-11-10T23:47:28.777Z,86.80
2022-11-10T23:52:22.276Z,85.40
2022-11-10T23:57:15.683Z,17.67
